createdAt,value
2018-09-20T00:00:27.014Z,98052.00
2018-09-20T00:02:57.441Z,98044.00
2018-09-20T00:05:27.816Z,98051.00
2018-09-20T00:07:58.336Z,98044.00
2018-09-20T00:10:29.059Z,98049.00
2018-09-20T00:12:59.760Z,98045.00
2018-09-20T00:15:30.350Z,98044.00
2018-09-20T00:18:00.766Z,98039.00
2018-09-20T00:20:31.256Z,98044.00
2018-09-20T00:23:01.784Z,98038.00
2018-09-20T00:25:32.355Z,98032.00
2018-09-20T00:28:02.932Z,98031.00
2018-09-20T00:30:33.840Z,98028.00
2018-09-20T00:33:04.354Z,98028.00
2018-09-20T00:35:34.972Z,98026.00
2018-09-20T00:38:08.501Z,98029.00
2018-09-20T00:40:39.011Z,98026.00
2018-09-20T00:43:10.253Z,98026.00
2018-09-20T00:45:40.927Z,98028.00
2018-09-20T00:48:11.244Z,98023.00
2018-09-20T00:50:41.823Z,98022.00
2018-09-20T00:53:12.195Z,98025.00
2018-09-20T00:55:42.664Z,98019.00
2018-09-20T00:58:13.239Z,98018.00
2018-09-20T01:00:43.823Z,98022.00
2018-09-20T01:03:14.412Z,98026.00
2018-09-20T01:05:44.904Z,98022.00
2018-09-20T01:08:15.303Z,98023.00
2018-09-20T01:10:45.766Z,98021.00
2018-09-20T01:13:16.529Z,98015.00
2018-09-20T01:15:47.010Z,98017.00
2018-09-20T01:18:17.454Z,98014.00
2018-09-20T01:20:47.868Z,98012.00
2018-09-20T01:23:18.409Z,98008.00
2018-09-20T01:25:48.785Z,98007.00
2018-09-20T01:28:19.094Z,98003.00
2018-09-20T01:30:49.557Z,98009.00
2018-09-20T01:33:19.812Z,98001.00
2018-09-20T01:35:50.198Z,98010.00
2018-09-20T01:38:20.499Z,98016.00
2018-09-20T01:40:50.778Z,98018.00
2018-09-20T01:43:21.110Z,98016.00
2018-09-20T01:45:51.594Z,98018.00
2018-09-20T01:48:22.065Z,98020.00
2018-09-20T01:50:52.544Z,98024.00
2018-09-20T01:53:22.833Z,98022.00
2018-09-20T01:55:53.333Z,98023.00
2018-09-20T01:58:23.844Z,98014.00
2018-09-20T02:00:54.507Z,98020.00
2018-09-20T02:03:25.243Z,98018.00
2018-09-20T02:05:55.505Z,98020.00
2018-09-20T02:08:26.105Z,98016.00
2018-09-20T02:10:56.623Z,98012.00
2018-09-20T02:13:27.032Z,98017.00
2018-09-20T02:15:57.366Z,98013.00
2018-09-20T02:18:27.803Z,98012.00
2018-09-20T02:20:58.333Z,98012.00
2018-09-20T02:23:29.023Z,98019.00
2018-09-20T02:25:59.247Z,98016.00
2018-09-20T02:28:29.798Z,98018.00
2018-09-20T02:31:00.373Z,98018.00
2018-09-20T02:33:31.704Z,98026.00
2018-09-20T02:36:02.313Z,98018.00
2018-09-20T02:38:32.843Z,98016.00
2018-09-20T02:41:03.188Z,98013.00
2018-09-20T02:43:33.899Z,98012.00
2018-09-20T02:46:04.425Z,98006.00
2018-09-20T02:48:34.964Z,98007.00
2018-09-20T02:51:05.287Z,98007.00
2018-09-20T02:53:35.832Z,98009.00
2018-09-20T02:56:06.355Z,98008.00
2018-09-20T02:58:36.972Z,98010.00
2018-09-20T03:01:07.858Z,98014.00
2018-09-20T03:03:38.332Z,98007.00
2018-09-20T03:06:08.835Z,98011.00
2018-09-20T03:08:39.371Z,98018.00
2018-09-20T03:11:10.143Z,98013.00
2018-09-20T03:13:40.571Z,98018.00
2018-09-20T03:16:10.901Z,98016.00
2018-09-20T03:18:41.256Z,98014.00
2018-09-20T03:21:11.633Z,98016.00
2018-09-20T03:23:42.179Z,98013.00
2018-09-20T03:26:12.725Z,98014.00
2018-09-20T03:28:43.396Z,98018.00
2018-09-20T03:31:13.976Z,98018.00
2018-09-20T03:33:44.436Z,98018.00
2018-09-20T03:36:14.913Z,98017.00
2018-09-20T03:38:45.429Z,98016.00
2018-09-20T03:41:15.869Z,98019.00
2018-09-20T03:43:46.377Z,98021.00
2018-09-20T03:46:16.675Z,98019.00
2018-09-20T03:48:47.001Z,98022.00
2018-09-20T03:51:17.495Z,98023.00
2018-09-20T03:53:48.027Z,98020.00
2018-09-20T03:56:18.531Z,98021.00
2018-09-20T03:58:48.843Z,98020.00
2018-09-20T04:01:19.694Z,98016.00
2018-09-20T04:03:50.135Z,98018.00
2018-09-20T04:06:20.649Z,98014.00
2018-09-20T04:08:50.959Z,98012.00
2018-09-20T04:11:21.449Z,98012.00
2018-09-20T04:13:52.009Z,98014.00
2018-09-20T04:16:22.594Z,98017.00
2018-09-20T04:18:53.078Z,98014.00
2018-09-20T04:21:29.050Z,98024.00
2018-09-20T04:23:59.848Z,98022.00
2018-09-20T04:26:30.956Z,98029.00
2018-09-20T04:29:01.588Z,98027.00
2018-09-20T04:31:32.370Z,98031.00
2018-09-20T04:34:02.949Z,98028.00
2018-09-20T04:36:33.553Z,98029.00
2018-09-20T04:39:04.397Z,98030.00
2018-09-20T04:41:34.848Z,98032.00
2018-09-20T04:44:05.503Z,98036.00
2018-09-20T04:46:35.904Z,98041.00
2018-09-20T04:49:06.353Z,98037.00
2018-09-20T04:51:36.743Z,98039.00
2018-09-20T04:54:07.363Z,98032.00
2018-09-20T04:56:37.686Z,98031.00
2018-09-20T04:59:10.852Z,98032.00
2018-09-20T05:01:41.775Z,98034.00
2018-09-20T05:04:12.043Z,98040.00
2018-09-20T05:06:42.700Z,98035.00
2018-09-20T05:09:14.407Z,98038.00
2018-09-20T05:11:44.723Z,98040.00
2018-09-20T05:14:15.232Z,98039.00
2018-09-20T05:16:46.007Z,98036.00
2018-09-20T05:19:16.635Z,98035.00
2018-09-20T05:21:47.232Z,98033.00
2018-09-20T05:24:17.686Z,98038.00
2018-09-20T05:26:47.905Z,98036.00
2018-09-20T05:29:18.456Z,98035.00
2018-09-20T05:31:48.816Z,98041.00
2018-09-20T05:34:19.421Z,98039.00
2018-09-20T05:36:49.883Z,98041.00
2018-09-20T05:39:20.599Z,98045.00
2018-09-20T05:41:51.039Z,98040.00
2018-09-20T05:44:22.033Z,98044.00
2018-09-20T05:46:52.463Z,98045.00
2018-09-20T05:49:23.249Z,98045.00
2018-09-20T05:51:53.750Z,98046.00
2018-09-20T05:54:24.216Z,98045.00
2018-09-20T05:56:54.865Z,98049.00
2018-09-20T05:59:25.399Z,98053.00
2018-09-20T06:01:55.529Z,98049.00
2018-09-20T06:04:25.749Z,98049.00
2018-09-20T06:06:56.288Z,98051.00
2018-09-20T06:09:26.941Z,98052.00
2018-09-20T06:11:57.325Z,98055.00
2018-09-20T06:14:27.937Z,98056.00
2018-09-20T06:16:58.522Z,98049.00
2018-09-20T06:19:28.694Z,98055.00
2018-09-20T06:21:59.073Z,98046.00
2018-09-20T06:24:29.644Z,98051.00
2018-09-20T06:27:00.091Z,98053.00
2018-09-20T06:29:31.028Z,98055.00
2018-09-20T06:32:01.643Z,98054.00
2018-09-20T06:34:31.862Z,98050.00
2018-09-20T06:37:02.238Z,98057.00
2018-09-20T06:39:32.863Z,98061.00
2018-09-20T06:42:03.091Z,98067.00
2018-09-20T06:44:33.467Z,98064.00
2018-09-20T06:47:03.843Z,98068.00
2018-09-20T06:49:34.239Z,98063.00
2018-09-20T06:52:04.639Z,98065.00
2018-09-20T06:54:34.996Z,98063.00
2018-09-20T06:57:05.352Z,98072.00
2018-09-20T06:59:36.978Z,98063.00
2018-09-20T07:02:07.404Z,98066.00
2018-09-20T07:04:37.695Z,98065.00
2018-09-20T07:07:08.001Z,98067.00
2018-09-20T07:09:38.506Z,98064.00
2018-09-20T07:12:13.520Z,98066.00
2018-09-20T07:14:43.828Z,98069.00
2018-09-20T07:17:14.352Z,98065.00
2018-09-20T07:19:45.376Z,98069.00
2018-09-20T07:22:15.791Z,98068.00
2018-09-20T07:24:46.598Z,98064.00
2018-09-20T07:27:16.977Z,98067.00
2018-09-20T07:29:47.451Z,98064.00
2018-09-20T07:32:17.982Z,98062.00
2018-09-20T07:34:48.174Z,98065.00
2018-09-20T07:37:18.527Z,98067.00
2018-09-20T07:39:48.799Z,98067.00
2018-09-20T07:42:19.069Z,98072.00
2018-09-20T07:44:49.397Z,98072.00
2018-09-20T07:47:19.643Z,98076.00
2018-09-20T07:49:49.875Z,98083.00
2018-09-20T07:52:20.446Z,98085.00
2018-09-20T07:54:50.976Z,98083.00
2018-09-20T07:57:21.339Z,98088.00
2018-09-20T07:59:51.702Z,98089.00
2018-09-20T08:02:22.058Z,98090.00
2018-09-20T08:04:52.380Z,98087.00
2018-09-20T08:07:22.952Z,98084.00
2018-09-20T08:09:53.277Z,98088.00
2018-09-20T08:12:23.601Z,98088.00
2018-09-20T08:14:54.007Z,98088.00
2018-09-20T08:17:24.678Z,98090.00
2018-09-20T08:19:55.061Z,98095.00
2018-09-20T08:22:25.505Z,98087.00
2018-09-20T08:24:56.058Z,98090.00
2018-09-20T08:27:26.500Z,98088.00
2018-09-20T08:29:56.956Z,98088.00
2018-09-20T08:32:27.205Z,98092.00
2018-09-20T08:34:57.872Z,98083.00
2018-09-20T08:37:28.453Z,98086.00
2018-09-20T08:39:58.700Z,98082.00
2018-09-20T08:42:29.243Z,98081.00
2018-09-20T08:44:59.754Z,98076.00
2018-09-20T08:47:30.306Z,98077.00
2018-09-20T08:50:01.315Z,98075.00
2018-09-20T08:52:31.351Z,98084.00
2018-09-20T08:55:01.834Z,98077.00
2018-09-20T08:57:36.411Z,98074.00
2018-09-20T09:00:07.226Z,98072.00
2018-09-20T09:02:37.443Z,98069.00
2018-09-20T09:05:07.839Z,98068.00
2018-09-20T09:07:38.375Z,98061.00
2018-09-20T09:10:08.825Z,98062.00
2018-09-20T09:12:39.380Z,98052.00
2018-09-20T09:15:09.724Z,98055.00
2018-09-20T09:17:40.205Z,98048.00
2018-09-20T09:20:10.621Z,98040.00
2018-09-20T09:22:40.994Z,98038.00
2018-09-20T09:25:11.462Z,98038.00
2018-09-20T09:27:41.816Z,98045.00
2018-09-20T09:30:12.357Z,98044.00
2018-09-20T09:32:42.754Z,98045.00
2018-09-20T09:35:13.072Z,98046.00
2018-09-20T09:37:43.283Z,98044.00
2018-09-20T09:40:14.403Z,98036.00
2018-09-20T09:42:44.297Z,98034.00
2018-09-20T09:45:14.201Z,98034.00
2018-09-20T09:47:44.176Z,98026.00
2018-09-20T09:50:14.224Z,98025.00
2018-09-20T09:52:44.885Z,98023.00
2018-09-20T09:55:14.828Z,98019.00
2018-09-20T09:57:49.064Z,98012.00
2018-09-20T10:00:23.095Z,98006.00
2018-09-20T10:02:53.290Z,98007.00
2018-09-20T10:05:23.321Z,98003.00
2018-09-20T10:07:53.611Z,98005.00
2018-09-20T10:10:23.649Z,98003.00
2018-09-20T10:12:53.700Z,97999.00
2018-09-20T10:15:23.699Z,97993.00
2018-09-20T10:17:53.756Z,97994.00
2018-09-20T10:20:23.821Z,97991.00
2018-09-20T10:22:54.807Z,97986.00
2018-09-20T10:25:24.876Z,97983.00
2018-09-20T10:27:55.077Z,97978.00
2018-09-20T10:30:25.107Z,97977.00
2018-09-20T10:32:55.243Z,97980.00
2018-09-20T10:35:25.287Z,97982.00
2018-09-20T10:37:55.404Z,97974.00
2018-09-20T10:40:25.465Z,97967.00
2018-09-20T10:42:55.954Z,97968.00
2018-09-20T10:45:26.593Z,97957.00
2018-09-20T10:47:56.643Z,97960.00
2018-09-20T10:50:26.743Z,97960.00
2018-09-20T10:52:56.883Z,97960.00
2018-09-20T10:55:26.940Z,97954.00
2018-09-20T10:57:56.990Z,97947.00
2018-09-20T11:00:27.015Z,97948.00
2018-09-20T11:02:57.120Z,97947.00
2018-09-20T11:05:27.078Z,97946.00
2018-09-20T11:07:57.203Z,97940.00
2018-09-20T11:10:27.246Z,97933.00
2018-09-20T11:12:57.319Z,97932.00
2018-09-20T11:15:27.441Z,97925.00
2018-09-20T11:17:57.463Z,97928.00
2018-09-20T11:20:27.495Z,97925.00
2018-09-20T11:22:57.586Z,97917.00
2018-09-20T11:25:27.720Z,97920.00
2018-09-20T11:27:57.727Z,97917.00
2018-09-20T11:30:27.727Z,97913.00
2018-09-20T11:32:57.733Z,97916.00
2018-09-20T11:35:27.838Z,97912.00
2018-09-20T11:37:57.839Z,97909.00
2018-09-20T11:40:27.884Z,97909.00
2018-09-20T11:42:57.883Z,97908.00
2018-09-20T11:45:27.958Z,97907.00
2018-09-20T11:47:57.997Z,97905.00
2018-09-20T11:50:28.045Z,97902.00
2018-09-20T11:52:58.096Z,97903.00
2018-09-20T11:55:28.168Z,97902.00
2018-09-20T11:57:58.244Z,97903.00
2018-09-20T12:00:28.429Z,97895.00
2018-09-20T12:02:58.463Z,97889.00
2018-09-20T12:05:28.556Z,97891.00
2018-09-20T12:07:58.646Z,97885.00
2018-09-20T12:10:28.724Z,97888.00
2018-09-20T12:12:58.685Z,97886.00
2018-09-20T12:15:28.715Z,97882.00
2018-09-20T12:17:58.702Z,97878.00
2018-09-20T12:20:28.925Z,97878.00
2018-09-20T12:22:59.009Z,97876.00
2018-09-20T12:25:29.137Z,97868.00
2018-09-20T12:27:59.243Z,97868.00
2018-09-20T12:30:29.286Z,97868.00
2018-09-20T12:32:59.380Z,97868.00
2018-09-20T12:35:29.544Z,97863.00
2018-09-20T12:37:59.570Z,97862.00
2018-09-20T12:40:29.629Z,97858.00
2018-09-20T12:42:59.750Z,97853.00
2018-09-20T12:45:29.676Z,97854.00
2018-09-20T12:47:59.689Z,97852.00
2018-09-20T12:50:29.733Z,97848.00
2018-09-20T12:52:59.731Z,97844.00
2018-09-20T12:55:29.772Z,97841.00
2018-09-20T12:57:59.758Z,97836.00
2018-09-20T13:00:29.799Z,97834.00
2018-09-20T13:02:59.914Z,97831.00
2018-09-20T13:05:29.943Z,97826.00
2018-09-20T13:08:00.028Z,97829.00
2018-09-20T13:10:30.025Z,97829.00
2018-09-20T13:13:00.123Z,97819.00
2018-09-20T13:15:30.049Z,97825.00
2018-09-20T13:18:00.056Z,97821.00
2018-09-20T13:20:30.117Z,97819.00
2018-09-20T13:23:00.102Z,97813.00
2018-09-20T13:25:30.223Z,97811.00
2018-09-20T13:28:00.137Z,97808.00
2018-09-20T13:30:30.170Z,97811.00
2018-09-20T13:33:00.800Z,97809.00
2018-09-20T13:35:30.869Z,97814.00
2018-09-20T13:38:00.931Z,97811.00
2018-09-20T13:40:30.946Z,97804.00
2018-09-20T13:43:00.972Z,97803.00
2018-09-20T13:45:31.599Z,97801.00
2018-09-20T13:48:01.703Z,97797.00
2018-09-20T13:50:39.236Z,97797.00
2018-09-20T13:53:09.634Z,97800.00
2018-09-20T13:55:40.142Z,97797.00
2018-09-20T13:58:10.535Z,97793.00
2018-09-20T14:00:41.075Z,97789.00
2018-09-20T14:03:11.514Z,97783.00
2018-09-20T14:05:42.367Z,97785.00
2018-09-20T14:08:12.978Z,97782.00
2018-09-20T14:10:43.632Z,97783.00
2018-09-20T14:13:14.195Z,97781.00
2018-09-20T14:15:44.528Z,97778.00
2018-09-20T14:18:14.952Z,97776.00
2018-09-20T14:20:45.362Z,97771.00
2018-09-20T14:23:15.392Z,97773.00
2018-09-20T14:25:45.498Z,97774.00
2018-09-20T14:28:15.499Z,97774.00
2018-09-20T14:30:45.505Z,97766.00
2018-09-20T14:33:15.510Z,97763.00
2018-09-20T14:35:45.538Z,97772.00
2018-09-20T14:38:16.344Z,97768.00
2018-09-20T14:40:47.422Z,97767.00
2018-09-20T14:43:17.963Z,97766.00
2018-09-20T14:45:49.854Z,97761.00
2018-09-20T14:48:20.078Z,97764.00
2018-09-20T14:50:50.406Z,97769.00
2018-09-20T14:53:20.721Z,97760.00
2018-09-20T14:55:51.255Z,97762.00
2018-09-20T14:58:21.780Z,97762.00
2018-09-20T15:00:52.233Z,97759.00
2018-09-20T15:03:22.565Z,97765.00
2018-09-20T15:05:53.064Z,97766.00
2018-09-20T15:08:23.425Z,97764.00
2018-09-20T15:10:54.463Z,97763.00
2018-09-20T15:13:24.922Z,97759.00
2018-09-20T15:15:55.424Z,97755.00
2018-09-20T15:18:25.955Z,97753.00
2018-09-20T15:20:56.250Z,97750.00
2018-09-20T15:23:26.746Z,97757.00
2018-09-20T15:25:56.784Z,97755.00
2018-09-20T15:28:26.859Z,97753.00
2018-09-20T15:30:56.852Z,97746.00
2018-09-20T15:33:26.939Z,97753.00
2018-09-20T15:35:56.951Z,97748.00
2018-09-20T15:38:26.992Z,97745.00
2018-09-20T15:40:56.958Z,97748.00
2018-09-20T15:43:27.020Z,97747.00
2018-09-20T15:45:57.032Z,97751.00
2018-09-20T15:48:27.115Z,97742.00
2018-09-20T15:50:57.266Z,97748.00
2018-09-20T15:53:27.726Z,97748.00
2018-09-20T15:55:57.692Z,97744.00
2018-09-20T15:58:28.076Z,97743.00
2018-09-20T16:00:58.579Z,97743.00
2018-09-20T16:03:28.897Z,97743.00
2018-09-20T16:05:59.229Z,97740.00
2018-09-20T16:08:29.500Z,97738.00
2018-09-20T16:11:00.001Z,97740.00
2018-09-20T16:13:30.047Z,97741.00
2018-09-20T16:16:00.040Z,97738.00
2018-09-20T16:18:30.107Z,97741.00
2018-09-20T16:21:00.175Z,97739.00
2018-09-20T16:23:30.523Z,97738.00
2018-09-20T16:26:01.136Z,97740.00
2018-09-20T16:29:43.098Z,97730.00
2018-09-20T16:32:32.236Z,97738.00
2018-09-20T16:39:17.692Z,97741.00
2018-09-20T16:41:51.582Z,97739.00
2018-09-20T16:44:21.652Z,97742.00
2018-09-20T16:46:51.698Z,97741.00
2018-09-20T16:49:21.710Z,97741.00
2018-09-20T16:51:51.723Z,97739.00
2018-09-20T16:54:21.805Z,97742.00
2018-09-20T16:56:51.800Z,97738.00
2018-09-20T16:59:22.136Z,97740.00
2018-09-20T17:01:52.674Z,97744.00
2018-09-20T17:04:22.913Z,97744.00
2018-09-20T17:06:53.440Z,97746.00
2018-09-20T17:09:23.801Z,97746.00
2018-09-20T17:11:54.301Z,97745.00
2018-09-20T17:14:24.905Z,97743.00
2018-09-20T17:16:55.465Z,97750.00
2018-09-20T17:19:25.934Z,97751.00
2018-09-20T17:21:56.518Z,97754.00
2018-09-20T17:24:26.591Z,97756.00
2018-09-20T17:26:57.145Z,97758.00
2018-09-20T17:29:27.561Z,97757.00
2018-09-20T17:31:58.268Z,97763.00
2018-09-20T17:34:28.596Z,97762.00
2018-09-20T17:36:59.867Z,97771.00
2018-09-20T17:39:31.875Z,97770.00
2018-09-20T17:42:03.023Z,97774.00
2018-09-20T17:44:33.045Z,97777.00
2018-09-20T17:47:03.245Z,97779.00
2018-09-20T17:49:33.525Z,97785.00
2018-09-20T17:52:03.979Z,97783.00
2018-09-20T17:54:34.754Z,97787.00
2018-09-20T17:57:05.100Z,97790.00
2018-09-20T17:59:35.223Z,97786.00
2018-09-20T18:02:05.315Z,97786.00
2018-09-20T18:04:35.345Z,97790.00
2018-09-20T18:07:05.425Z,97791.00
2018-09-20T18:09:35.485Z,97788.00
2018-09-20T18:12:05.659Z,97787.00
2018-09-20T18:14:36.074Z,97792.00
2018-09-20T18:17:06.146Z,97794.00
2018-09-20T18:19:36.413Z,97787.00
2018-09-20T18:22:07.104Z,97788.00
2018-09-20T18:24:37.666Z,97791.00
2018-09-20T18:27:08.248Z,97791.00
2018-09-20T18:29:38.625Z,97793.00
2018-09-20T18:32:08.895Z,97801.00
2018-09-20T18:34:39.516Z,97803.00
2018-09-20T18:37:09.932Z,97803.00
2018-09-20T18:39:40.321Z,97805.00
2018-09-20T18:42:10.763Z,97806.00
2018-09-20T18:44:41.172Z,97809.00
2018-09-20T18:47:11.765Z,97804.00
2018-09-20T18:49:42.238Z,97809.00
2018-09-20T18:52:12.380Z,97810.00
2018-09-20T18:54:42.401Z,97806.00
2018-09-20T18:57:12.435Z,97809.00
2018-09-20T18:59:42.513Z,97803.00
2018-09-20T19:02:12.599Z,97805.00
2018-09-20T19:04:42.585Z,97806.00
2018-09-20T19:07:12.748Z,97789.00
2018-09-20T19:09:42.715Z,97804.00
2018-09-20T19:12:12.741Z,97801.00
2018-09-20T19:14:42.838Z,97796.00
2018-09-20T19:17:12.869Z,97795.00
2018-09-20T19:19:42.901Z,97796.00
2018-09-20T19:22:13.134Z,97796.00
2018-09-20T19:24:43.395Z,97800.00
2018-09-20T19:27:13.480Z,97803.00
2018-09-20T19:29:43.613Z,97802.00
2018-09-20T19:32:13.662Z,97804.00
2018-09-20T19:34:45.094Z,97801.00
2018-09-20T19:37:15.145Z,97805.00
2018-09-20T19:39:45.156Z,97805.00
2018-09-20T19:42:15.226Z,97801.00
2018-09-20T19:44:45.227Z,97801.00
2018-09-20T19:47:15.353Z,97798.00
2018-09-20T19:49:45.342Z,97800.00
2018-09-20T19:52:15.549Z,97799.00
2018-09-20T19:54:45.558Z,97795.00
2018-09-20T19:57:15.690Z,97804.00
2018-09-20T19:59:45.773Z,97803.00
2018-09-20T20:02:15.840Z,97797.00
2018-09-20T20:04:45.999Z,97801.00
2018-09-20T20:07:16.049Z,97802.00
2018-09-20T20:09:46.016Z,97799.00
2018-09-20T20:12:15.982Z,97796.00
2018-09-20T20:14:45.976Z,97797.00
2018-09-20T20:17:16.311Z,97794.00
2018-09-20T20:19:46.425Z,97795.00
2018-09-20T20:22:16.450Z,97793.00
2018-09-20T20:24:46.458Z,97799.00
2018-09-20T20:27:16.416Z,97804.00
2018-09-20T20:29:46.410Z,97802.00
2018-09-20T20:32:16.401Z,97804.00
2018-09-20T20:34:46.403Z,97804.00
2018-09-20T20:37:16.519Z,97802.00
2018-09-20T20:39:47.190Z,97804.00
2018-09-20T20:42:17.171Z,97803.00
2018-09-20T20:44:47.213Z,97800.00
2018-09-20T20:47:17.228Z,97798.00
2018-09-20T20:49:47.730Z,97798.00
2018-09-20T20:52:17.692Z,97795.00
2018-09-20T20:54:47.692Z,97796.00
2018-09-20T20:57:17.691Z,97799.00
2018-09-20T20:59:47.846Z,97791.00
2018-09-20T21:02:17.886Z,97798.00
2018-09-20T21:04:48.667Z,97794.00
2018-09-20T21:07:18.801Z,97790.00
2018-09-20T21:09:48.757Z,97790.00
2018-09-20T21:12:18.921Z,97790.00
2018-09-20T21:14:48.991Z,97792.00
2018-09-20T21:17:19.067Z,97793.00
2018-09-20T21:19:48.971Z,97793.00
2018-09-20T21:22:18.981Z,97796.00
2018-09-20T21:24:48.991Z,97790.00
2018-09-20T21:27:19.082Z,97787.00
2018-09-20T21:29:49.072Z,97786.00
2018-09-20T21:32:19.064Z,97791.00
2018-09-20T21:34:49.048Z,97787.00
2018-09-20T21:37:19.032Z,97784.00
2018-09-20T21:39:49.165Z,97787.00
2018-09-20T21:42:19.149Z,97780.00
2018-09-20T21:44:49.145Z,97787.00
2018-09-20T21:47:19.102Z,97788.00
2018-09-20T21:49:49.076Z,97776.00
2018-09-20T21:52:19.087Z,97783.00
2018-09-20T21:54:49.049Z,97778.00
2018-09-20T21:57:18.996Z,97784.00
2018-09-20T21:59:51.997Z,97780.00
2018-09-20T22:02:26.939Z,97786.00
2018-09-20T22:04:56.960Z,97781.00
2018-09-20T22:07:26.928Z,97785.00
2018-09-20T22:09:57.023Z,97783.00
2018-09-20T22:12:26.980Z,97779.00
2018-09-20T22:14:56.972Z,97776.00
2018-09-20T22:17:27.007Z,97770.00
2018-09-20T22:19:56.961Z,97765.00
2018-09-20T22:22:26.936Z,97760.00
2018-09-20T22:24:56.881Z,97761.00
2018-09-20T22:27:26.927Z,97759.00
2018-09-20T22:29:57.075Z,97759.00
2018-09-20T22:32:27.072Z,97756.00
2018-09-20T22:34:57.003Z,97750.00
2018-09-20T22:37:27.042Z,97752.00
2018-09-20T22:39:57.077Z,97756.00
2018-09-20T22:42:27.024Z,97752.00
2018-09-20T22:44:56.990Z,97751.00
2018-09-20T22:47:26.942Z,97748.00
2018-09-20T22:49:57.079Z,97747.00
2018-09-20T22:52:27.022Z,97744.00
2018-09-20T22:54:57.075Z,97743.00
2018-09-20T22:57:27.027Z,97742.00
2018-09-20T22:59:57.008Z,97741.00
2018-09-20T23:02:26.989Z,97736.00
2018-09-20T23:04:57.002Z,97738.00
2018-09-20T23:07:26.992Z,97740.00
2018-09-20T23:09:57.071Z,97736.00
2018-09-20T23:12:27.129Z,97735.00
2018-09-20T23:14:57.117Z,97734.00
2018-09-20T23:17:27.082Z,97732.00
2018-09-20T23:19:57.026Z,97729.00
2018-09-20T23:22:27.421Z,97730.00
2018-09-20T23:24:57.963Z,97724.00
2018-09-20T23:27:28.463Z,97725.00
2018-09-20T23:29:58.925Z,97721.00
2018-09-20T23:32:29.491Z,97724.00
2018-09-20T23:34:59.711Z,97722.00
2018-09-20T23:37:30.027Z,97723.00
2018-09-20T23:40:00.546Z,97721.00
2018-09-20T23:42:31.128Z,97719.00
2018-09-20T23:45:01.512Z,97720.00
2018-09-20T23:47:31.955Z,97717.00
2018-09-20T23:50:02.301Z,97715.00
2018-09-20T23:52:32.311Z,97714.00
2018-09-20T23:55:02.237Z,97713.00
2018-09-20T23:57:32.189Z,97708.00
